Terminal Aerodrome Forecast
Issued by NWS

Home | Current Version | Previous Version | Text Only | Print | Product List | Glossary On
Versions: 1 2 3 4 5 6 7 8 9 10 11 12 13 14 15 16 17 18
000
FTUS43 KGRB 090520
TAFATW
TAF
KATW 090520Z 0906/1006 24005KT 2SM -SN OVC018
      TEMPO 0906/0909 3/4SM -SN BKN007
     FM090900 34010G16KT 3SM -SN BKN017
     FM091200 36013G26KT P6SM -SHSN BKN025
     FM091600 34014G24KT P6SM BKN030
     FM092000 32012G18KT P6SM SCT040
     FM092300 29006KT P6SM BKN100=

USA.gov is the U.S. government's official web portal to all federal, state and local government web resources and services.